sensor_id;sensor_type;location;lat;lon;timestamp;P1;durP1;ratioP1;P2;durP2;ratioP2
6163;SDS011;3114;48.362;10.994;2023-01-28T00:00:18;12.40;;;8.10;;
6163;SDS011;3114;48.362;10.994;2023-01-28T00:02:46;12.97;;;7.70;;
6163;SDS011;3114;48.362;10.994;2023-01-28T00:05:13;13.20;;;7.53;;
6163;SDS011;3114;48.362;10.994;2023-01-28T00:07:40;13.70;;;7.60;;
6163;SDS011;3114;48.362;10.994;2023-01-28T00:10:07;13.30;;;7.90;;
6163;SDS011;3114;48.362;10.994;2023-01-28T00:12:35;13.53;;;8.03;;
6163;SDS011;3114;48.362;10.994;2023-01-28T00:15:02;14.23;;;8.50;;
6163;SDS011;3114;48.362;10.994;2023-01-28T00:17:31;14.43;;;7.83;;
6163;SDS011;3114;48.362;10.994;2023-01-28T00:19:58;15.13;;;8.30;;
6163;SDS011;3114;48.362;10.994;2023-01-28T00:22:24;14.37;;;8.20;;
6163;SDS011;3114;48.362;10.994;2023-01-28T00:24:51;16.90;;;8.80;;
6163;SDS011;3114;48.362;10.994;2023-01-28T00:27:18;14.30;;;8.03;;
6163;SDS011;3114;48.362;10.994;2023-01-28T00:29:45;13.77;;;7.83;;
6163;SDS011;3114;48.362;10.994;2023-01-28T00:32:12;14.33;;;8.00;;
6163;SDS011;3114;48.362;10.994;2023-01-28T00:34:40;14.93;;;8.43;;
6163;SDS011;3114;48.362;10.994;2023-01-28T00:37:07;14.60;;;9.10;;
6163;SDS011;3114;48.362;10.994;2023-01-28T00:39:34;13.50;;;8.37;;
6163;SDS011;3114;48.362;10.994;2023-01-28T00:42:01;15.90;;;8.17;;
6163;SDS011;3114;48.362;10.994;2023-01-28T00:44:28;14.87;;;8.43;;
6163;SDS011;3114;48.362;10.994;2023-01-28T00:46:55;17.30;;;8.43;;
6163;SDS011;3114;48.362;10.994;2023-01-28T00:49:22;14.50;;;8.63;;
6163;SDS011;3114;48.362;10.994;2023-01-28T00:51:50;15.00;;;7.87;;
6163;SDS011;3114;48.362;10.994;2023-01-28T00:54:17;15.33;;;8.67;;
6163;SDS011;3114;48.362;10.994;2023-01-28T00:56:45;15.73;;;8.60;;
6163;SDS011;3114;48.362;10.994;2023-01-28T00:59:12;16.77;;;9.23;;
6163;SDS011;3114;48.362;10.994;2023-01-28T01:01:39;16.17;;;8.53;;
6163;SDS011;3114;48.362;10.994;2023-01-28T01:04:06;15.63;;;8.83;;
6163;SDS011;3114;48.362;10.994;2023-01-28T01:06:34;16.00;;;9.03;;
6163;SDS011;3114;48.362;10.994;2023-01-28T01:09:04;15.63;;;9.00;;
6163;SDS011;3114;48.362;10.994;2023-01-28T01:11:32;16.87;;;9.63;;
6163;SDS011;3114;48.362;10.994;2023-01-28T01:13:59;18.40;;;10.07;;
6163;SDS011;3114;48.362;10.994;2023-01-28T01:16:29;17.20;;;9.27;;
6163;SDS011;3114;48.362;10.994;2023-01-28T01:19:00;19.00;;;9.33;;
6163;SDS011;3114;48.362;10.994;2023-01-28T01:21:27;16.57;;;9.20;;
6163;SDS011;3114;48.362;10.994;2023-01-28T01:23:55;16.30;;;10.03;;
6163;SDS011;3114;48.362;10.994;2023-01-28T01:26:23;16.70;;;9.27;;
6163;SDS011;3114;48.362;10.994;2023-01-28T01:28:51;16.43;;;9.63;;
6163;SDS011;3114;48.362;10.994;2023-01-28T01:31:18;16.57;;;8.73;;
6163;SDS011;3114;48.362;10.994;2023-01-28T01:33:50;16.13;;;9.07;;
6163;SDS011;3114;48.362;10.994;2023-01-28T01:36:17;16.80;;;9.87;;
6163;SDS011;3114;48.362;10.994;2023-01-28T01:38:46;15.30;;;8.43;;
6163;SDS011;3114;48.362;10.994;2023-01-28T01:41:21;15.87;;;9.33;;
6163;SDS011;3114;48.362;10.994;2023-01-28T01:43:52;18.27;;;9.57;;
6163;SDS011;3114;48.362;10.994;2023-01-28T01:46:21;15.57;;;9.37;;
6163;SDS011;3114;48.362;10.994;2023-01-28T01:48:51;16.13;;;8.93;;
6163;SDS011;3114;48.362;10.994;2023-01-28T01:51:21;17.97;;;9.20;;
6163;SDS011;3114;48.362;10.994;2023-01-28T01:53:55;15.43;;;8.80;;
6163;SDS011;3114;48.362;10.994;2023-01-28T01:56:26;15.83;;;8.53;;
6163;SDS011;3114;48.362;10.994;2023-01-28T01:58:57;16.00;;;8.83;;
6163;SDS011;3114;48.362;10.994;2023-01-28T02:01:26;14.63;;;8.37;;
6163;SDS011;3114;48.362;10.994;2023-01-28T02:03:56;15.57;;;8.80;;
6163;SDS011;3114;48.362;10.994;2023-01-28T02:06:28;15.00;;;8.63;;
6163;SDS011;3114;48.362;10.994;2023-01-28T02:08:57;18.07;;;9.63;;
6163;SDS011;3114;48.362;10.994;2023-01-28T02:11:26;15.03;;;8.33;;
6163;SDS011;3114;48.362;10.994;2023-01-28T02:13:56;17.53;;;8.53;;
6163;SDS011;3114;48.362;10.994;2023-01-28T02:16:27;16.70;;;8.77;;
6163;SDS011;3114;48.362;10.994;2023-01-28T02:18:55;14.77;;;8.30;;
6163;SDS011;3114;48.362;10.994;2023-01-28T02:21:29;15.40;;;8.93;;
6163;SDS011;3114;48.362;10.994;2023-01-28T02:24:24;14.70;;;7.97;;
6163;SDS011;3114;48.362;10.994;2023-01-28T02:27:11;14.17;;;8.70;;
6163;SDS011;3114;48.362;10.994;2023-01-28T02:29:51;17.17;;;8.60;;
6163;SDS011;3114;48.362;10.994;2023-01-28T02:32:23;16.43;;;9.30;;
6163;SDS011;3114;48.362;10.994;2023-01-28T02:34:55;14.83;;;9.27;;
6163;SDS011;3114;48.362;10.994;2023-01-28T02:37:33;18.03;;;8.90;;
6163;SDS011;3114;48.362;10.994;2023-01-28T02:40:04;14.77;;;8.20;;
6163;SDS011;3114;48.362;10.994;2023-01-28T02:42:36;13.73;;;8.13;;
6163;SDS011;3114;48.362;10.994;2023-01-28T02:45:09;17.33;;;9.40;;
6163;SDS011;3114;48.362;10.994;2023-01-28T02:47:44;17.13;;;9.03;;
6163;SDS011;3114;48.362;10.994;2023-01-28T02:50:22;14.53;;;8.47;;
6163;SDS011;3114;48.362;10.994;2023-01-28T02:52:54;14.77;;;8.23;;
6163;SDS011;3114;48.362;10.994;2023-01-28T02:55:46;13.70;;;7.87;;
6163;SDS011;3114;48.362;10.994;2023-01-28T02:58:21;17.13;;;8.37;;
6163;SDS011;3114;48.362;10.994;2023-01-28T03:00:59;16.33;;;8.57;;
6163;SDS011;3114;48.362;10.994;2023-01-28T03:03:34;15.43;;;8.63;;
6163;SDS011;3114;48.362;10.994;2023-01-28T03:06:09;16.10;;;9.00;;
6163;SDS011;3114;48.362;10.994;2023-01-28T03:08:41;14.00;;;8.67;;
6163;SDS011;3114;48.362;10.994;2023-01-28T03:11:32;15.33;;;8.17;;
6163;SDS011;3114;48.362;10.994;2023-01-28T03:14:20;18.50;;;8.60;;
6163;SDS011;3114;48.362;10.994;2023-01-28T03:17:08;16.97;;;8.43;;
6163;SDS011;3114;48.362;10.994;2023-01-28T03:19:59;15.80;;;7.90;;
6163;SDS011;3114;48.362;10.994;2023-01-28T03:22:44;16.17;;;8.37;;
6163;SDS011;3114;48.362;10.994;2023-01-28T03:25:32;18.27;;;9.10;;
6163;SDS011;3114;48.362;10.994;2023-01-28T03:28:17;14.10;;;8.23;;
6163;SDS011;3114;48.362;10.994;2023-01-28T03:31:05;14.77;;;8.87;;
6163;SDS011;3114;48.362;10.994;2023-01-28T03:33:53;15.13;;;8.27;;
6163;SDS011;3114;48.362;10.994;2023-01-28T03:36:39;14.30;;;7.50;;
6163;SDS011;3114;48.362;10.994;2023-01-28T03:39:12;14.53;;;8.40;;
6163;SDS011;3114;48.362;10.994;2023-01-28T03:41:39;14.90;;;8.27;;
6163;SDS011;3114;48.362;10.994;2023-01-28T03:44:07;15.73;;;8.33;;
6163;SDS011;3114;48.362;10.994;2023-01-28T03:46:51;15.43;;;8.23;;
6163;SDS011;3114;48.362;10.994;2023-01-28T03:49:19;13.80;;;7.43;;
6163;SDS011;3114;48.362;10.994;2023-01-28T03:51:46;15.43;;;8.23;;
6163;SDS011;3114;48.362;10.994;2023-01-28T03:54:13;16.77;;;9.00;;
6163;SDS011;3114;48.362;10.994;2023-01-28T03:56:40;14.00;;;7.67;;
6163;SDS011;3114;48.362;10.994;2023-01-28T03:59:07;14.30;;;8.03;;
6163;SDS011;3114;48.362;10.994;2023-01-28T04:01:34;14.77;;;8.30;;
6163;SDS011;3114;48.362;10.994;2023-01-28T04:04:00;17.43;;;7.97;;
6163;SDS011;3114;48.362;10.994;2023-01-28T04:06:29;13.60;;;7.67;;
6163;SDS011;3114;48.362;10.994;2023-01-28T04:08:56;16.07;;;8.03;;
6163;SDS011;3114;48.362;10.994;2023-01-28T04:11:24;18.17;;;8.10;;
6163;SDS011;3114;48.362;10.994;2023-01-28T04:13:51;16.43;;;8.30;;
6163;SDS011;3114;48.362;10.994;2023-01-28T04:16:18;14.17;;;8.20;;
6163;SDS011;3114;48.362;10.994;2023-01-28T04:18:46;16.70;;;7.97;;
6163;SDS011;3114;48.362;10.994;2023-01-28T04:21:13;13.30;;;8.03;;
6163;SDS011;3114;48.362;10.994;2023-01-28T04:23:41;13.83;;;7.77;;
6163;SDS011;3114;48.362;10.994;2023-01-28T04:26:08;14.77;;;7.80;;
6163;SDS011;3114;48.362;10.994;2023-01-28T04:28:35;12.83;;;8.30;;
6163;SDS011;3114;48.362;10.994;2023-01-28T04:31:02;14.30;;;7.63;;
6163;SDS011;3114;48.362;10.994;2023-01-28T04:33:28;13.50;;;7.63;;
6163;SDS011;3114;48.362;10.994;2023-01-28T04:35:55;15.03;;;8.40;;
6163;SDS011;3114;48.362;10.994;2023-01-28T04:38:22;13.60;;;7.57;;
6163;SDS011;3114;48.362;10.994;2023-01-28T04:40:50;14.17;;;7.30;;
6163;SDS011;3114;48.362;10.994;2023-01-28T04:43:18;13.70;;;7.40;;
6163;SDS011;3114;48.362;10.994;2023-01-28T04:45:45;13.00;;;7.47;;
6163;SDS011;3114;48.362;10.994;2023-01-28T04:48:12;15.60;;;7.60;;
6163;SDS011;3114;48.362;10.994;2023-01-28T04:50:40;13.83;;;7.67;;
6163;SDS011;3114;48.362;10.994;2023-01-28T04:53:07;13.77;;;7.60;;
6163;SDS011;3114;48.362;10.994;2023-01-28T04:55:34;15.00;;;7.70;;
6163;SDS011;3114;48.362;10.994;2023-01-28T04:58:03;14.30;;;8.40;;
6163;SDS011;3114;48.362;10.994;2023-01-28T05:00:29;12.30;;;7.67;;
6163;SDS011;3114;48.362;10.994;2023-01-28T05:02:56;12.33;;;7.10;;
6163;SDS011;3114;48.362;10.994;2023-01-28T05:05:23;15.37;;;7.80;;
6163;SDS011;3114;48.362;10.994;2023-01-28T05:07:50;14.77;;;7.53;;
6163;SDS011;3114;48.362;10.994;2023-01-28T05:10:18;15.30;;;7.93;;
6163;SDS011;3114;48.362;10.994;2023-01-28T05:12:46;12.53;;;7.60;;
6163;SDS011;3114;48.362;10.994;2023-01-28T05:15:15;14.07;;;7.90;;
6163;SDS011;3114;48.362;10.994;2023-01-28T05:17:43;17.23;;;8.00;;
6163;SDS011;3114;48.362;10.994;2023-01-28T05:20:11;12.80;;;7.23;;
6163;SDS011;3114;48.362;10.994;2023-01-28T05:22:39;11.37;;;6.97;;
6163;SDS011;3114;48.362;10.994;2023-01-28T05:25:07;11.93;;;7.27;;
6163;SDS011;3114;48.362;10.994;2023-01-28T05:27:34;13.73;;;7.13;;
6163;SDS011;3114;48.362;10.994;2023-01-28T05:30:01;13.53;;;7.50;;
6163;SDS011;3114;48.362;10.994;2023-01-28T05:32:32;11.43;;;6.87;;
6163;SDS011;3114;48.362;10.994;2023-01-28T05:34:58;14.33;;;7.23;;
6163;SDS011;3114;48.362;10.994;2023-01-28T05:37:25;16.30;;;7.20;;
6163;SDS011;3114;48.362;10.994;2023-01-28T05:39:52;14.07;;;7.50;;
6163;SDS011;3114;48.362;10.994;2023-01-28T05:42:19;12.20;;;7.27;;
6163;SDS011;3114;48.362;10.994;2023-01-28T05:44:46;10.63;;;6.40;;
6163;SDS011;3114;48.362;10.994;2023-01-28T05:47:13;11.27;;;6.90;;
6163;SDS011;3114;48.362;10.994;2023-01-28T05:49:41;13.03;;;6.40;;
6163;SDS011;3114;48.362;10.994;2023-01-28T05:52:08;11.77;;;7.20;;
6163;SDS011;3114;48.362;10.994;2023-01-28T05:54:35;11.83;;;6.80;;
6163;SDS011;3114;48.362;10.994;2023-01-28T05:57:02;12.27;;;6.53;;
6163;SDS011;3114;48.362;10.994;2023-01-28T05:59:29;12.43;;;6.97;;
6163;SDS011;3114;48.362;10.994;2023-01-28T06:01:56;12.87;;;7.30;;
6163;SDS011;3114;48.362;10.994;2023-01-28T06:04:23;11.73;;;7.07;;
6163;SDS011;3114;48.362;10.994;2023-01-28T06:06:51;12.33;;;7.07;;
6163;SDS011;3114;48.362;10.994;2023-01-28T06:09:18;10.90;;;6.90;;
6163;SDS011;3114;48.362;10.994;2023-01-28T06:11:45;12.70;;;7.40;;
6163;SDS011;3114;48.362;10.994;2023-01-28T06:14:12;10.93;;;6.30;;
6163;SDS011;3114;48.362;10.994;2023-01-28T06:16:39;10.83;;;7.00;;
6163;SDS011;3114;48.362;10.994;2023-01-28T06:19:05;11.57;;;6.97;;
6163;SDS011;3114;48.362;10.994;2023-01-28T06:21:32;11.77;;;6.83;;
6163;SDS011;3114;48.362;10.994;2023-01-28T06:24:01;13.20;;;6.80;;
6163;SDS011;3114;48.362;10.994;2023-01-28T06:26:27;12.10;;;7.03;;
6163;SDS011;3114;48.362;10.994;2023-01-28T06:28:54;12.90;;;7.37;;
6163;SDS011;3114;48.362;10.994;2023-01-28T06:31:21;13.50;;;7.27;;
6163;SDS011;3114;48.362;10.994;2023-01-28T06:33:48;12.03;;;6.93;;
6163;SDS011;3114;48.362;10.994;2023-01-28T06:36:15;11.53;;;6.30;;
6163;SDS011;3114;48.362;10.994;2023-01-28T06:38:41;12.07;;;6.70;;
6163;SDS011;3114;48.362;10.994;2023-01-28T06:41:10;12.73;;;7.57;;
6163;SDS011;3114;48.362;10.994;2023-01-28T06:43:37;12.90;;;7.23;;
6163;SDS011;3114;48.362;10.994;2023-01-28T06:46:04;9.90;;;6.60;;
6163;SDS011;3114;48.362;10.994;2023-01-28T06:48:31;11.63;;;7.33;;
6163;SDS011;3114;48.362;10.994;2023-01-28T06:50:58;12.93;;;6.80;;
6163;SDS011;3114;48.362;10.994;2023-01-28T06:53:25;11.77;;;7.00;;
6163;SDS011;3114;48.362;10.994;2023-01-28T06:55:52;13.13;;;6.80;;
6163;SDS011;3114;48.362;10.994;2023-01-28T06:58:20;12.37;;;7.13;;
6163;SDS011;3114;48.362;10.994;2023-01-28T07:00:47;12.03;;;7.33;;
6163;SDS011;3114;48.362;10.994;2023-01-28T07:03:14;14.20;;;7.50;;
6163;SDS011;3114;48.362;10.994;2023-01-28T07:05:41;11.43;;;6.57;;
6163;SDS011;3114;48.362;10.994;2023-01-28T07:08:08;12.53;;;7.17;;
6163;SDS011;3114;48.362;10.994;2023-01-28T07:10:35;11.63;;;6.83;;
6163;SDS011;3114;48.362;10.994;2023-01-28T07:13:02;12.13;;;6.60;;
6163;SDS011;3114;48.362;10.994;2023-01-28T07:15:30;13.10;;;7.70;;
6163;SDS011;3114;48.362;10.994;2023-01-28T07:17:57;11.70;;;6.77;;
6163;SDS011;3114;48.362;10.994;2023-01-28T07:20:24;12.63;;;7.67;;
6163;SDS011;3114;48.362;10.994;2023-01-28T07:22:51;12.00;;;7.07;;
6163;SDS011;3114;48.362;10.994;2023-01-28T07:25:18;12.10;;;6.93;;
6163;SDS011;3114;48.362;10.994;2023-01-28T07:27:48;12.97;;;7.23;;
6163;SDS011;3114;48.362;10.994;2023-01-28T07:30:18;12.57;;;6.70;;
6163;SDS011;3114;48.362;10.994;2023-01-28T07:32:52;16.63;;;7.07;;
6163;SDS011;3114;48.362;10.994;2023-01-28T07:35:20;10.53;;;6.43;;
6163;SDS011;3114;48.362;10.994;2023-01-28T07:37:50;13.87;;;6.70;;
6163;SDS011;3114;48.362;10.994;2023-01-28T07:40:17;11.13;;;6.13;;
6163;SDS011;3114;48.362;10.994;2023-01-28T07:42:45;12.53;;;6.97;;
6163;SDS011;3114;48.362;10.994;2023-01-28T07:45:12;13.03;;;6.90;;
6163;SDS011;3114;48.362;10.994;2023-01-28T07:47:39;12.67;;;7.30;;
6163;SDS011;3114;48.362;10.994;2023-01-28T07:50:08;10.93;;;6.77;;
6163;SDS011;3114;48.362;10.994;2023-01-28T07:52:36;12.67;;;7.10;;
6163;SDS011;3114;48.362;10.994;2023-01-28T07:55:08;13.70;;;7.27;;
6163;SDS011;3114;48.362;10.994;2023-01-28T07:57:36;11.33;;;7.20;;
6163;SDS011;3114;48.362;10.994;2023-01-28T08:00:13;13.73;;;7.57;;
6163;SDS011;3114;48.362;10.994;2023-01-28T08:02:40;11.73;;;7.10;;
6163;SDS011;3114;48.362;10.994;2023-01-28T08:05:10;11.43;;;6.87;;
6163;SDS011;3114;48.362;10.994;2023-01-28T08:07:37;10.03;;;6.20;;
6163;SDS011;3114;48.362;10.994;2023-01-28T08:10:04;12.03;;;6.17;;
6163;SDS011;3114;48.362;10.994;2023-01-28T08:12:32;14.07;;;7.00;;
6163;SDS011;3114;48.362;10.994;2023-01-28T08:14:58;15.57;;;7.37;;
6163;SDS011;3114;48.362;10.994;2023-01-28T08:17:26;12.20;;;7.20;;
6163;SDS011;3114;48.362;10.994;2023-01-28T08:19:53;10.73;;;6.10;;
6163;SDS011;3114;48.362;10.994;2023-01-28T08:22:24;12.77;;;6.57;;
6163;SDS011;3114;48.362;10.994;2023-01-28T08:24:51;9.77;;;6.33;;
6163;SDS011;3114;48.362;10.994;2023-01-28T08:27:18;11.50;;;6.53;;
6163;SDS011;3114;48.362;10.994;2023-01-28T08:29:45;12.60;;;7.20;;
6163;SDS011;3114;48.362;10.994;2023-01-28T08:32:11;11.87;;;6.97;;
6163;SDS011;3114;48.362;10.994;2023-01-28T08:34:38;10.17;;;6.63;;
6163;SDS011;3114;48.362;10.994;2023-01-28T08:37:05;11.13;;;6.43;;
6163;SDS011;3114;48.362;10.994;2023-01-28T08:39:33;11.53;;;6.13;;
6163;SDS011;3114;48.362;10.994;2023-01-28T08:42:00;12.43;;;6.47;;
6163;SDS011;3114;48.362;10.994;2023-01-28T08:44:27;12.33;;;6.17;;
6163;SDS011;3114;48.362;10.994;2023-01-28T08:46:54;10.70;;;6.30;;
6163;SDS011;3114;48.362;10.994;2023-01-28T08:49:21;11.53;;;6.70;;
6163;SDS011;3114;48.362;10.994;2023-01-28T08:51:48;10.77;;;6.37;;
6163;SDS011;3114;48.362;10.994;2023-01-28T08:54:15;11.73;;;7.50;;
6163;SDS011;3114;48.362;10.994;2023-01-28T08:56:44;13.10;;;7.07;;
6163;SDS011;3114;48.362;10.994;2023-01-28T08:59:12;11.23;;;6.97;;
6163;SDS011;3114;48.362;10.994;2023-01-28T09:01:40;11.17;;;6.67;;
6163;SDS011;3114;48.362;10.994;2023-01-28T09:04:06;12.33;;;6.77;;
6163;SDS011;3114;48.362;10.994;2023-01-28T09:06:33;11.03;;;6.33;;
6163;SDS011;3114;48.362;10.994;2023-01-28T09:09:01;10.70;;;6.70;;
6163;SDS011;3114;48.362;10.994;2023-01-28T09:11:28;12.60;;;7.53;;
6163;SDS011;3114;48.362;10.994;2023-01-28T09:13:58;14.13;;;8.07;;
6163;SDS011;3114;48.362;10.994;2023-01-28T09:16:25;13.47;;;7.37;;
6163;SDS011;3114;48.362;10.994;2023-01-28T09:18:52;12.03;;;7.23;;
6163;SDS011;3114;48.362;10.994;2023-01-28T09:21:19;10.90;;;6.57;;
6163;SDS011;3114;48.362;10.994;2023-01-28T09:23:46;12.93;;;7.30;;
6163;SDS011;3114;48.362;10.994;2023-01-28T09:26:13;12.20;;;7.40;;
6163;SDS011;3114;48.362;10.994;2023-01-28T09:28:41;11.23;;;7.60;;
6163;SDS011;3114;48.362;10.994;2023-01-28T09:31:10;12.07;;;6.90;;
6163;SDS011;3114;48.362;10.994;2023-01-28T09:33:38;12.43;;;7.13;;
6163;SDS011;3114;48.362;10.994;2023-01-28T09:36:06;10.90;;;6.83;;
6163;SDS011;3114;48.362;10.994;2023-01-28T09:38:33;12.83;;;7.00;;
6163;SDS011;3114;48.362;10.994;2023-01-28T09:41:01;13.40;;;7.80;;
6163;SDS011;3114;48.362;10.994;2023-01-28T09:46:26;12.10;;;6.83;;
6163;SDS011;3114;48.362;10.994;2023-01-28T09:48:57;12.87;;;6.60;;
6163;SDS011;3114;48.362;10.994;2023-01-28T09:51:29;11.97;;;7.20;;
6163;SDS011;3114;48.362;10.994;2023-01-28T09:54:00;14.83;;;7.10;;
6163;SDS011;3114;48.362;10.994;2023-01-28T09:56:31;13.37;;;7.70;;
6163;SDS011;3114;48.362;10.994;2023-01-28T09:59:07;14.13;;;7.53;;
6163;SDS011;3114;48.362;10.994;2023-01-28T10:01:44;12.57;;;7.50;;
6163;SDS011;3114;48.362;10.994;2023-01-28T10:04:20;16.93;;;7.90;;
6163;SDS011;3114;48.362;10.994;2023-01-28T10:07:02;13.03;;;7.77;;
6163;SDS011;3114;48.362;10.994;2023-01-28T10:09:45;12.13;;;6.97;;
6163;SDS011;3114;48.362;10.994;2023-01-28T10:12:21;13.03;;;7.30;;
6163;SDS011;3114;48.362;10.994;2023-01-28T10:15:01;13.10;;;7.10;;
6163;SDS011;3114;48.362;10.994;2023-01-28T10:17:41;11.93;;;7.40;;
6163;SDS011;3114;48.362;10.994;2023-01-28T10:20:15;10.23;;;6.90;;
6163;SDS011;3114;48.362;10.994;2023-01-28T10:22:46;11.27;;;6.97;;
6163;SDS011;3114;48.362;10.994;2023-01-28T10:25:16;11.73;;;6.87;;
6163;SDS011;3114;48.362;10.994;2023-01-28T10:27:45;11.90;;;7.37;;
6163;SDS011;3114;48.362;10.994;2023-01-28T10:30:17;11.13;;;6.90;;
6163;SDS011;3114;48.362;10.994;2023-01-28T10:32:48;13.50;;;7.47;;
6163;SDS011;3114;48.362;10.994;2023-01-28T10:35:18;10.87;;;6.90;;
6163;SDS011;3114;48.362;10.994;2023-01-28T10:37:46;13.43;;;7.63;;
6163;SDS011;3114;48.362;10.994;2023-01-28T10:40:14;12.13;;;7.53;;
6163;SDS011;3114;48.362;10.994;2023-01-28T10:42:41;14.20;;;7.53;;
6163;SDS011;3114;48.362;10.994;2023-01-28T10:45:13;11.53;;;6.93;;
6163;SDS011;3114;48.362;10.994;2023-01-28T10:47:45;13.43;;;6.83;;
6163;SDS011;3114;48.362;10.994;2023-01-28T10:50:19;11.37;;;6.60;;
6163;SDS011;3114;48.362;10.994;2023-01-28T10:52:53;11.57;;;6.20;;
6163;SDS011;3114;48.362;10.994;2023-01-28T10:55:20;10.27;;;6.07;;
6163;SDS011;3114;48.362;10.994;2023-01-28T10:57:49;11.17;;;6.90;;
6163;SDS011;3114;48.362;10.994;2023-01-28T11:00:26;10.97;;;6.60;;
6163;SDS011;3114;48.362;10.994;2023-01-28T11:02:58;9.07;;;6.43;;
6163;SDS011;3114;48.362;10.994;2023-01-28T11:05:25;13.20;;;7.30;;
6163;SDS011;3114;48.362;10.994;2023-01-28T11:08:03;11.47;;;7.10;;
6163;SDS011;3114;48.362;10.994;2023-01-28T11:10:33;11.27;;;6.53;;
6163;SDS011;3114;48.362;10.994;2023-01-28T11:13:02;10.27;;;6.43;;
6163;SDS011;3114;48.362;10.994;2023-01-28T11:15:30;10.57;;;6.50;;
6163;SDS011;3114;48.362;10.994;2023-01-28T11:17:59;9.77;;;6.43;;
6163;SDS011;3114;48.362;10.994;2023-01-28T11:20:29;11.07;;;7.00;;
6163;SDS011;3114;48.362;10.994;2023-01-28T11:23:00;10.07;;;6.50;;
6163;SDS011;3114;48.362;10.994;2023-01-28T11:25:28;11.47;;;7.03;;
6163;SDS011;3114;48.362;10.994;2023-01-28T11:27:57;9.87;;;6.60;;
6163;SDS011;3114;48.362;10.994;2023-01-28T11:30:27;11.00;;;6.97;;
6163;SDS011;3114;48.362;10.994;2023-01-28T11:32:59;13.70;;;8.03;;
6163;SDS011;3114;48.362;10.994;2023-01-28T11:35:33;12.53;;;7.13;;
6163;SDS011;3114;48.362;10.994;2023-01-28T11:37:59;13.23;;;7.77;;
6163;SDS011;3114;48.362;10.994;2023-01-28T11:40:26;15.87;;;8.40;;
6163;SDS011;3114;48.362;10.994;2023-01-28T11:42:54;11.13;;;7.07;;
6163;SDS011;3114;48.362;10.994;2023-01-28T11:45:24;10.37;;;6.73;;
6163;SDS011;3114;48.362;10.994;2023-01-28T11:48:15;13.17;;;7.03;;
6163;SDS011;3114;48.362;10.994;2023-01-28T11:50:51;13.13;;;7.23;;
6163;SDS011;3114;48.362;10.994;2023-01-28T11:56:35;12.90;;;7.03;;
6163;SDS011;3114;48.362;10.994;2023-01-28T11:59:28;11.33;;;7.10;;
6163;SDS011;3114;48.362;10.994;2023-01-28T12:02:05;12.77;;;6.93;;
6163;SDS011;3114;48.362;10.994;2023-01-28T12:04:49;12.30;;;6.80;;
6163;SDS011;3114;48.362;10.994;2023-01-28T12:07:31;12.23;;;7.30;;
6163;SDS011;3114;48.362;10.994;2023-01-28T12:10:05;10.03;;;6.30;;
6163;SDS011;3114;48.362;10.994;2023-01-28T12:15:47;11.40;;;6.90;;
6163;SDS011;3114;48.362;10.994;2023-01-28T12:18:40;12.50;;;7.37;;
6163;SDS011;3114;48.362;10.994;2023-01-28T12:21:26;11.80;;;7.70;;
6163;SDS011;3114;48.362;10.994;2023-01-28T12:24:03;14.77;;;7.57;;
6163;SDS011;3114;48.362;10.994;2023-01-28T12:26:41;10.47;;;6.83;;
6163;SDS011;3114;48.362;10.994;2023-01-28T12:29:17;10.63;;;6.63;;
6163;SDS011;3114;48.362;10.994;2023-01-28T12:32:02;10.40;;;6.53;;
6163;SDS011;3114;48.362;10.994;2023-01-28T12:37:46;10.93;;;7.17;;
6163;SDS011;3114;48.362;10.994;2023-01-28T12:40:32;11.50;;;7.13;;
6163;SDS011;3114;48.362;10.994;2023-01-28T12:43:21;11.77;;;6.80;;
6163;SDS011;3114;48.362;10.994;2023-01-28T12:45:53;10.93;;;6.33;;
6163;SDS011;3114;48.362;10.994;2023-01-28T12:48:24;10.37;;;6.90;;
6163;SDS011;3114;48.362;10.994;2023-01-28T12:50:56;8.77;;;5.83;;
6163;SDS011;3114;48.362;10.994;2023-01-28T12:53:30;11.07;;;6.83;;
6163;SDS011;3114;48.362;10.994;2023-01-28T12:56:04;9.90;;;5.93;;
6163;SDS011;3114;48.362;10.994;2023-01-28T12:58:36;9.40;;;6.33;;
6163;SDS011;3114;48.362;10.994;2023-01-28T13:01:06;9.73;;;6.60;;
6163;SDS011;3114;48.362;10.994;2023-01-28T13:03:38;10.67;;;6.57;;
6163;SDS011;3114;48.362;10.994;2023-01-28T13:06:09;10.50;;;6.70;;
6163;SDS011;3114;48.362;10.994;2023-01-28T13:08:41;9.47;;;5.97;;
6163;SDS011;3114;48.362;10.994;2023-01-28T13:11:10;9.73;;;6.30;;
6163;SDS011;3114;48.362;10.994;2023-01-28T13:13:41;11.47;;;7.07;;
6163;SDS011;3114;48.362;10.994;2023-01-28T13:16:10;13.57;;;7.57;;
6163;SDS011;3114;48.362;10.994;2023-01-28T13:18:45;9.80;;;6.20;;
6163;SDS011;3114;48.362;10.994;2023-01-28T13:21:13;11.10;;;6.67;;
6163;SDS011;3114;48.362;10.994;2023-01-28T13:23:44;13.30;;;7.47;;
6163;SDS011;3114;48.362;10.994;2023-01-28T13:26:26;13.37;;;7.40;;
6163;SDS011;3114;48.362;10.994;2023-01-28T13:29:05;11.77;;;7.10;;
6163;SDS011;3114;48.362;10.994;2023-01-28T13:31:36;11.23;;;6.73;;
6163;SDS011;3114;48.362;10.994;2023-01-28T13:34:05;9.83;;;6.47;;
6163;SDS011;3114;48.362;10.994;2023-01-28T13:36:33;12.17;;;7.13;;
6163;SDS011;3114;48.362;10.994;2023-01-28T13:39:06;10.80;;;6.73;;
6163;SDS011;3114;48.362;10.994;2023-01-28T13:41:44;9.93;;;6.37;;
6163;SDS011;3114;48.362;10.994;2023-01-28T13:44:16;9.43;;;6.47;;
6163;SDS011;3114;48.362;10.994;2023-01-28T13:46:45;10.80;;;5.83;;
6163;SDS011;3114;48.362;10.994;2023-01-28T13:49:13;7.30;;;5.47;;
6163;SDS011;3114;48.362;10.994;2023-01-28T13:51:44;10.03;;;5.57;;
6163;SDS011;3114;48.362;10.994;2023-01-28T13:54:21;9.57;;;5.80;;
6163;SDS011;3114;48.362;10.994;2023-01-28T13:56:54;9.40;;;6.03;;
6163;SDS011;3114;48.362;10.994;2023-01-28T13:59:41;11.17;;;5.50;;
6163;SDS011;3114;48.362;10.994;2023-01-28T14:02:20;11.70;;;6.63;;
6163;SDS011;3114;48.362;10.994;2023-01-28T14:08:22;10.70;;;6.10;;
6163;SDS011;3114;48.362;10.994;2023-01-28T14:11:15;9.87;;;5.80;;
6163;SDS011;3114;48.362;10.994;2023-01-28T14:14:16;10.13;;;5.90;;
6163;SDS011;3114;48.362;10.994;2023-01-28T14:16:57;9.47;;;6.10;;
6163;SDS011;3114;48.362;10.994;2023-01-28T14:19:27;9.77;;;5.77;;
6163;SDS011;3114;48.362;10.994;2023-01-28T14:21:57;9.77;;;6.07;;
6163;SDS011;3114;48.362;10.994;2023-01-28T14:24:31;12.43;;;6.90;;
6163;SDS011;3114;48.362;10.994;2023-01-28T14:27:01;11.57;;;6.50;;
6163;SDS011;3114;48.362;10.994;2023-01-28T14:29:36;9.70;;;6.27;;
6163;SDS011;3114;48.362;10.994;2023-01-28T14:32:11;9.80;;;6.20;;
6163;SDS011;3114;48.362;10.994;2023-01-28T14:34:41;10.10;;;6.47;;
6163;SDS011;3114;48.362;10.994;2023-01-28T14:37:10;10.30;;;6.77;;
6163;SDS011;3114;48.362;10.994;2023-01-28T14:39:40;11.33;;;6.37;;
6163;SDS011;3114;48.362;10.994;2023-01-28T14:42:13;9.70;;;6.33;;
6163;SDS011;3114;48.362;10.994;2023-01-28T14:44:45;10.83;;;6.70;;
6163;SDS011;3114;48.362;10.994;2023-01-28T14:47:31;12.20;;;6.73;;
6163;SDS011;3114;48.362;10.994;2023-01-28T14:50:13;12.37;;;7.00;;
6163;SDS011;3114;48.362;10.994;2023-01-28T14:53:12;8.80;;;6.23;;
6163;SDS011;3114;48.362;10.994;2023-01-28T14:55:50;12.10;;;7.07;;
6163;SDS011;3114;48.362;10.994;2023-01-28T14:58:24;12.90;;;6.80;;
6163;SDS011;3114;48.362;10.994;2023-01-28T15:00:55;12.77;;;6.87;;
6163;SDS011;3114;48.362;10.994;2023-01-28T15:03:24;11.40;;;6.83;;
6163;SDS011;3114;48.362;10.994;2023-01-28T15:06:03;12.33;;;7.27;;
6163;SDS011;3114;48.362;10.994;2023-01-28T15:08:31;13.10;;;7.10;;
6163;SDS011;3114;48.362;10.994;2023-01-28T15:10:59;13.10;;;7.53;;
6163;SDS011;3114;48.362;10.994;2023-01-28T15:13:29;13.03;;;7.67;;
6163;SDS011;3114;48.362;10.994;2023-01-28T15:15:59;12.67;;;6.77;;
6163;SDS011;3114;48.362;10.994;2023-01-28T15:18:28;13.27;;;8.00;;
6163;SDS011;3114;48.362;10.994;2023-01-28T15:20:57;13.07;;;7.53;;
6163;SDS011;3114;48.362;10.994;2023-01-28T15:23:27;12.13;;;6.90;;
6163;SDS011;3114;48.362;10.994;2023-01-28T15:25:57;14.57;;;7.57;;